Portada
METAR-TAF:

METAR-TAF

Aeroports :

Middleton Island, Alaska, Estats Units d'Amèrica

latitud: 59-26N, longitud: 146-18W, altitud: 27 m

Observació

L'informe es va fer fa 6 minuts, a les 09:55 UTC
Vent 29 kt del Est amb ràfegues de 35 kt
Temperatura 6°C
Humitat 93%
Pressió 1004 hPa
Visibilitat: 14.5 km
Escasses núvols a una alçada de 700 ft
Núvols disperses a una alçada de 1200 ft
Cel cobert a una alçada de 1900 ft
pluja

METAR: PAMD 150955Z AUTO 10029G35KT 9SM -RA FEW007 SCT012 OVC019 06/05 A2966 RMK AO2 PK WND 10035/0952 P0000

Hora: 01:01 (10:01 UTC)


TAF: manca

Observacions i pronòstics meteorològics de més de 4000 aeroports (METAR i TAF).

Les estacions disponibles són els punts grocs i vermells al mapa.

Posi el ratolí al punt desitjat per veure el nom de l'estació.

Feu clic per veure les observacions i els pronòstics meteorològics.

Per canviar el mapa: feu clic els botons verds amb una creu de color negre per apropar; al botó verd amb un guió per allunyar la imatge; o en les fletxes verdes per a mapes adjacents.


METAR-TAF: